createdAt,value
2022-08-21T00:14:12.273Z,6.78
2022-08-21T00:25:44.812Z,6.10
2022-08-21T00:27:58.961Z,6.13
2022-08-21T00:35:05.652Z,6.20
2022-08-21T01:04:39.836Z,6.88
2022-08-21T01:06:50.932Z,5.82
2022-08-21T01:09:01.445Z,6.10
2022-08-21T01:11:17.551Z,6.28
2022-08-21T01:13:24.412Z,6.50
2022-08-21T01:15:41.337Z,8.05
2022-08-21T01:18:31.109Z,6.43
2022-08-21T03:51:48.954Z,3.95
2022-08-21T04:18:51.942Z,2.42
2022-08-21T07:06:01.053Z,1.83
2022-08-21T07:08:05.285Z,2.25
2022-08-21T07:10:09.893Z,2.60
2022-08-21T07:12:25.374Z,2.67
2022-08-21T07:14:40.830Z,2.70
2022-08-21T07:21:16.716Z,1.55
2022-08-21T07:23:30.443Z,2.65
2022-08-21T07:25:36.294Z,2.42
2022-08-21T07:27:39.690Z,3.08
2022-08-21T07:29:50.041Z,2.63
2022-08-21T07:31:58.555Z,2.70
2022-08-21T07:34:19.576Z,2.67
2022-08-21T07:36:28.987Z,3.60
2022-08-21T07:38:42.935Z,3.30
2022-08-21T07:41:03.522Z,6.47
2022-08-21T07:43:20.226Z,4.07
2022-08-21T07:45:38.997Z,3.40
2022-08-21T07:47:57.149Z,5.45
2022-08-21T07:50:09.533Z,4.57
2022-08-21T07:52:18.145Z,4.03
2022-08-21T07:54:34.616Z,5.32
2022-08-21T07:57:16.127Z,4.25
2022-08-21T07:59:40.207Z,5.10
2022-08-21T08:11:17.429Z,4.47
2022-08-21T08:14:32.641Z,5.78
2022-08-21T08:22:50.456Z,5.20
2022-08-21T08:25:14.258Z,5.43
2022-08-21T08:31:46.764Z,5.53
2022-08-21T08:35:18.118Z,5.10
2022-08-21T08:37:34.608Z,6.78
2022-08-21T08:41:06.894Z,6.90
2022-08-21T08:52:06.670Z,4.32
2022-08-21T08:58:33.834Z,4.10
2022-08-21T09:01:09.707Z,4.22
2022-08-21T09:04:43.572Z,4.97
2022-08-21T09:11:56.462Z,1.73
2022-08-21T09:14:35.296Z,4.22
2022-08-21T09:17:23.938Z,3.83
2022-08-21T09:20:02.033Z,3.92
2022-08-21T09:22:38.971Z,3.30
2022-08-21T09:24:57.072Z,2.70
2022-08-21T09:27:15.003Z,3.85
2022-08-21T09:45:43.692Z,1.98
2022-08-21T09:47:48.412Z,1.67
2022-08-21T09:54:58.273Z,2.72
2022-08-21T09:57:11.962Z,2.65
2022-08-21T09:59:36.276Z,3.35
2022-08-21T10:01:51.052Z,3.42
2022-08-21T10:11:15.940Z,3.22
2022-08-21T10:13:41.087Z,2.58
2022-08-21T10:16:24.835Z,2.50
2022-08-21T19:27:51.634Z,4.18
2022-08-21T21:43:46.875Z,6.32
2022-08-21T21:56:06.314Z,6.78
2022-08-21T21:58:28.742Z,4.85
2022-08-21T22:10:05.645Z,5.20
2022-08-21T22:15:14.355Z,5.15
2022-08-21T22:19:47.114Z,3.15
2022-08-21T22:26:52.793Z,5.32
2022-08-21T22:29:10.223Z,7.90
2022-08-21T22:31:22.539Z,4.63
2022-08-21T22:33:29.594Z,7.07
2022-08-21T22:35:33.913Z,7.07
2022-08-21T22:37:47.788Z,4.20
2022-08-21T22:39:55.003Z,4.78
2022-08-21T22:42:14.094Z,7.15
2022-08-21T22:44:28.020Z,5.07
2022-08-21T22:46:50.174Z,4.95
2022-08-21T22:49:37.678Z,4.10
2022-08-21T22:51:48.873Z,4.13
2022-08-21T22:53:56.053Z,5.15
2022-08-21T22:56:05.473Z,4.90
2022-08-21T22:58:21.048Z,6.10
2022-08-21T23:00:46.663Z,4.22
2022-08-21T23:02:52.212Z,4.72
2022-08-21T23:05:02.205Z,4.80
2022-08-21T23:07:05.992Z,5.80
2022-08-21T23:09:39.041Z,6.07
2022-08-21T23:11:44.817Z,4.00
2022-08-21T23:13:55.053Z,4.50
2022-08-21T23:16:30.713Z,4.95
2022-08-21T23:18:57.854Z,4.97
2022-08-21T23:21:29.969Z,5.78
2022-08-21T23:23:48.042Z,5.53
2022-08-21T23:29:10.713Z,5.13
2022-08-21T23:31:39.390Z,4.15
2022-08-21T23:34:06.103Z,4.22
2022-08-21T23:36:53.254Z,4.10
2022-08-21T23:39:19.786Z,4.90
2022-08-21T23:41:35.074Z,6.05
2022-08-21T23:44:02.820Z,4.60
2022-08-21T23:46:34.219Z,4.68
2022-08-21T23:49:17.667Z,3.65
2022-08-21T23:51:52.664Z,4.32
2022-08-21T23:54:31.473Z,4.53
2022-08-21T23:57:08.212Z,3.35
